createdAt,value
2018-10-06T00:01:45.383Z,7.70
2018-10-06T00:04:14.904Z,6.70
2018-10-06T00:06:44.498Z,7.07
2018-10-06T00:09:14.185Z,6.93
2018-10-06T00:11:43.912Z,5.90
2018-10-06T00:14:13.711Z,8.13
2018-10-06T00:16:43.355Z,7.47
2018-10-06T00:19:13.112Z,6.70
2018-10-06T00:21:42.775Z,7.30
2018-10-06T00:24:12.494Z,6.47
2018-10-06T00:26:42.276Z,7.33
2018-10-06T00:29:11.971Z,7.27
2018-10-06T00:31:41.724Z,6.67
2018-10-06T00:34:11.311Z,7.43
2018-10-06T00:36:40.900Z,7.13
2018-10-06T00:39:10.612Z,7.40
2018-10-06T00:41:40.218Z,8.10
2018-10-06T00:44:09.846Z,7.23
2018-10-06T00:46:39.575Z,6.80
2018-10-06T00:49:09.513Z,8.13
2018-10-06T00:51:39.288Z,7.13
2018-10-06T00:54:08.993Z,7.07
2018-10-06T00:56:38.759Z,8.80
2018-10-06T00:59:08.595Z,8.43
2018-10-06T01:01:38.282Z,7.30
2018-10-06T01:04:07.956Z,7.93
2018-10-06T01:06:37.700Z,8.10
2018-10-06T01:09:08.605Z,8.20
2018-10-06T01:11:38.480Z,8.10
2018-10-06T01:14:08.190Z,7.63
2018-10-06T01:16:37.799Z,7.57
2018-10-06T01:19:07.583Z,8.37
2018-10-06T01:21:37.454Z,8.20
2018-10-06T01:24:07.256Z,9.13
2018-10-06T01:26:37.053Z,8.03
2018-10-06T01:29:06.835Z,8.30
2018-10-06T01:31:36.487Z,8.43
2018-10-06T01:34:06.363Z,8.27
2018-10-06T01:36:35.878Z,9.80
2018-10-06T01:39:05.917Z,8.60
2018-10-06T01:41:35.652Z,8.83
2018-10-06T01:44:05.516Z,8.90
2018-10-06T01:46:35.016Z,9.07
2018-10-06T01:49:04.649Z,8.90
2018-10-06T01:51:34.390Z,9.90
2018-10-06T01:54:04.189Z,9.73
2018-10-06T01:56:33.851Z,9.40
2018-10-06T01:59:03.602Z,9.87
2018-10-06T02:01:33.290Z,8.90
2018-10-06T02:04:02.923Z,9.10
2018-10-06T02:06:32.523Z,8.83
2018-10-06T02:09:02.111Z,9.03
2018-10-06T02:11:31.885Z,10.20
2018-10-06T02:14:01.639Z,9.73
2018-10-06T02:16:31.320Z,9.60
2018-10-06T02:19:01.259Z,10.10
2018-10-06T02:21:30.891Z,9.60
2018-10-06T02:24:00.580Z,10.20
2018-10-06T02:26:30.268Z,10.10
2018-10-06T02:29:00.027Z,9.80
2018-10-06T02:31:29.806Z,10.37
2018-10-06T02:33:59.439Z,10.80
2018-10-06T02:36:29.260Z,10.10
2018-10-06T02:38:59.020Z,11.03
2018-10-06T02:41:28.648Z,9.57
2018-10-06T02:43:58.330Z,10.17
2018-10-06T02:46:28.108Z,9.70
2018-10-06T02:48:57.779Z,9.80
2018-10-06T02:51:30.274Z,9.47
2018-10-06T02:54:01.879Z,9.13
2018-10-06T02:56:34.015Z,10.33
2018-10-06T02:59:03.043Z,9.50
2018-10-06T03:01:32.134Z,9.27
2018-10-06T03:04:01.237Z,10.83
2018-10-06T03:06:30.222Z,9.93
2018-10-06T03:08:59.324Z,10.20
2018-10-06T03:11:28.388Z,10.90
2018-10-06T03:13:58.131Z,11.80
2018-10-06T03:16:27.778Z,11.20
2018-10-06T03:18:57.543Z,10.60
2018-10-06T03:21:27.160Z,11.33
2018-10-06T03:23:56.806Z,11.27
2018-10-06T03:26:26.589Z,12.30
2018-10-06T03:28:56.255Z,11.60
2018-10-06T03:31:25.968Z,12.33
2018-10-06T03:33:55.659Z,11.10
2018-10-06T03:36:25.345Z,10.93
2018-10-06T03:38:55.328Z,12.07
2018-10-06T03:41:25.088Z,11.17
2018-10-06T03:43:54.957Z,10.80
2018-10-06T03:46:24.607Z,12.50
2018-10-06T03:48:54.315Z,12.13
2018-10-06T03:51:24.028Z,10.77
2018-10-06T03:53:53.740Z,11.63
2018-10-06T03:56:23.566Z,12.07
2018-10-06T03:58:53.481Z,11.40
2018-10-06T04:01:23.236Z,12.67
2018-10-06T04:03:52.863Z,12.67
2018-10-06T04:06:22.651Z,12.30
2018-10-06T04:08:52.321Z,13.63
2018-10-06T04:11:22.075Z,13.30
2018-10-06T04:13:51.724Z,12.00
2018-10-06T04:16:21.496Z,13.40
2018-10-06T04:18:51.251Z,13.13
2018-10-06T04:21:21.051Z,13.13
2018-10-06T04:23:50.672Z,12.50
2018-10-06T04:26:20.390Z,13.27
2018-10-06T04:28:50.248Z,12.03
2018-10-06T04:31:19.891Z,12.97
2018-10-06T04:33:49.567Z,13.30
2018-10-06T04:36:19.220Z,13.67
2018-10-06T04:38:49.028Z,12.50
2018-10-06T04:41:18.743Z,12.60
2018-10-06T04:43:48.458Z,14.87
2018-10-06T04:46:18.216Z,14.07
2018-10-06T04:48:47.865Z,13.83
2018-10-06T04:51:17.392Z,13.93
2018-10-06T04:53:47.084Z,15.43
2018-10-06T04:56:16.692Z,14.87
2018-10-06T04:58:46.464Z,13.40
2018-10-06T05:01:16.112Z,13.70
2018-10-06T05:03:45.795Z,14.60
2018-10-06T05:06:15.429Z,13.47
2018-10-06T05:08:45.155Z,13.73
2018-10-06T05:11:15.017Z,12.67
2018-10-06T05:13:44.561Z,13.80
2018-10-06T05:16:14.344Z,14.20
2018-10-06T05:18:43.997Z,14.63
2018-10-06T05:21:13.673Z,13.93
2018-10-06T05:23:43.506Z,14.17
2018-10-06T05:26:13.318Z,12.73
2018-10-06T05:28:43.080Z,14.17
2018-10-06T05:31:12.835Z,15.43
2018-10-06T05:33:42.707Z,13.97
2018-10-06T05:36:12.456Z,16.07
2018-10-06T05:38:42.236Z,13.93
2018-10-06T05:41:11.979Z,16.27
2018-10-06T05:43:41.739Z,13.70
2018-10-06T05:46:11.435Z,14.43
2018-10-06T05:48:41.103Z,15.27
2018-10-06T05:51:10.879Z,12.97
2018-10-06T05:53:40.434Z,13.30
2018-10-06T05:56:10.211Z,13.27
2018-10-06T05:58:39.838Z,13.30
2018-10-06T06:01:09.195Z,14.40
2018-10-06T06:03:39.365Z,14.93
2018-10-06T06:06:08.731Z,16.00
2018-10-06T06:08:38.088Z,15.23
2018-10-06T06:11:07.488Z,14.17
2018-10-06T06:13:36.875Z,14.57
2018-10-06T06:16:06.252Z,15.20
2018-10-06T06:18:35.638Z,15.70
2018-10-06T06:21:05.028Z,15.37
2018-10-06T06:23:34.404Z,15.30
2018-10-06T06:26:03.771Z,14.40
2018-10-06T06:28:33.356Z,16.00
2018-10-06T06:31:02.702Z,14.63
2018-10-06T06:33:32.149Z,15.00
2018-10-06T06:36:01.504Z,16.30
2018-10-06T06:38:30.986Z,15.00
2018-10-06T06:41:00.268Z,14.33
2018-10-06T06:43:29.746Z,14.17
2018-10-06T06:45:59.108Z,14.30
2018-10-06T06:48:28.469Z,13.60
2018-10-06T06:50:57.855Z,14.90
2018-10-06T06:53:27.223Z,13.50
2018-10-06T06:55:56.583Z,13.63
2018-10-06T06:58:26.279Z,13.87
2018-10-06T07:00:55.636Z,12.70
2018-10-06T07:03:24.995Z,14.23
2018-10-06T07:05:54.360Z,14.10
2018-10-06T07:08:24.035Z,12.67
2018-10-06T07:10:53.548Z,13.33
2018-10-06T07:13:22.914Z,13.53
2018-10-06T07:15:52.273Z,13.90
2018-10-06T07:18:21.678Z,11.80
2018-10-06T07:20:51.377Z,14.03
2018-10-06T07:23:20.763Z,13.30
2018-10-06T07:25:50.133Z,12.40
2018-10-06T07:28:19.907Z,12.87
2018-10-06T07:30:49.549Z,18.57
2018-10-06T07:33:18.917Z,14.00
2018-10-06T07:35:48.288Z,14.33
2018-10-06T07:38:17.651Z,14.10
2018-10-06T07:40:46.996Z,14.40
2018-10-06T07:43:16.371Z,13.30
2018-10-06T07:45:45.743Z,11.87
2018-10-06T07:48:15.100Z,11.70
2018-10-06T07:50:44.452Z,9.93
2018-10-06T07:53:13.876Z,9.83
2018-10-06T07:55:43.199Z,9.07
2018-10-06T07:58:12.562Z,9.13
2018-10-06T08:00:41.936Z,8.83
2018-10-06T08:03:11.299Z,9.30
2018-10-06T08:05:40.659Z,9.17
2018-10-06T08:08:10.042Z,9.20
2018-10-06T08:10:39.408Z,8.77
2018-10-06T08:13:08.767Z,7.97
2018-10-06T08:15:38.137Z,8.00
2018-10-06T08:18:07.500Z,8.00
2018-10-06T08:20:36.857Z,8.27
2018-10-06T08:23:06.491Z,7.80
2018-10-06T08:25:35.836Z,8.40
2018-10-06T08:28:05.184Z,7.87
2018-10-06T08:30:34.579Z,8.27
2018-10-06T08:33:03.930Z,8.10
2018-10-06T08:35:33.283Z,7.53
2018-10-06T08:38:02.684Z,7.40
2018-10-06T08:40:32.123Z,7.73
2018-10-06T08:43:01.479Z,7.70
2018-10-06T08:48:10.109Z,6.97
2018-10-06T08:50:39.499Z,7.20
2018-10-06T08:53:08.859Z,7.70
2018-10-06T08:55:38.203Z,8.17
2018-10-06T08:58:07.558Z,8.20
2018-10-06T09:00:36.967Z,7.77
2018-10-06T09:03:06.343Z,8.00
2018-10-06T09:05:35.728Z,7.63
2018-10-06T09:08:05.112Z,8.30
2018-10-06T09:10:34.504Z,7.70
2018-10-06T09:13:03.843Z,8.30
2018-10-06T09:15:33.184Z,6.70
2018-10-06T09:18:02.558Z,7.70
2018-10-06T09:20:31.903Z,8.20
2018-10-06T09:23:01.255Z,8.70
2018-10-06T09:25:30.678Z,7.60
2018-10-06T09:28:00.044Z,7.73
2018-10-06T09:30:29.432Z,6.87
2018-10-06T09:32:58.812Z,7.63
2018-10-06T09:35:28.163Z,7.77
2018-10-06T09:37:57.543Z,8.50
2018-10-06T09:40:26.941Z,7.23
2018-10-06T09:42:56.351Z,7.90
2018-10-06T09:45:25.738Z,8.07
2018-10-06T09:47:55.101Z,7.20
2018-10-06T09:50:24.480Z,7.63
2018-10-06T09:52:53.856Z,6.77
2018-10-06T09:55:23.224Z,6.93
2018-10-06T09:57:52.562Z,7.10
2018-10-06T10:00:26.923Z,7.10
2018-10-06T10:03:01.476Z,6.90
2018-10-06T10:05:35.955Z,5.97
2018-10-06T10:08:05.292Z,6.97
2018-10-06T10:10:34.652Z,6.07
2018-10-06T10:13:04.024Z,6.50
2018-10-06T10:15:33.493Z,6.13
2018-10-06T10:18:02.858Z,7.17
2018-10-06T10:20:32.159Z,6.60
2018-10-06T10:23:01.628Z,7.60
2018-10-06T10:25:30.944Z,6.77
2018-10-06T10:28:00.356Z,6.93
2018-10-06T10:30:29.712Z,6.60
2018-10-06T10:32:59.102Z,6.43
2018-10-06T10:35:28.460Z,6.07
2018-10-06T10:37:57.817Z,6.43
2018-10-06T10:40:27.185Z,6.60
2018-10-06T10:42:56.547Z,6.40
2018-10-06T10:45:25.903Z,6.20
2018-10-06T10:47:55.263Z,6.67
2018-10-06T10:50:24.619Z,6.03
2018-10-06T10:52:54.071Z,5.90
2018-10-06T10:55:23.483Z,5.60
2018-10-06T10:57:52.914Z,5.10
2018-10-06T11:00:22.265Z,5.80
2018-10-06T11:02:51.643Z,5.40
2018-10-06T11:05:21.012Z,5.10
2018-10-06T11:07:50.381Z,5.83
2018-10-06T11:10:19.803Z,5.03
2018-10-06T11:12:49.151Z,5.17
2018-10-06T11:15:18.535Z,5.70
2018-10-06T11:17:47.872Z,6.10
2018-10-06T11:20:17.208Z,6.13
2018-10-06T11:22:46.564Z,5.90
2018-10-06T11:25:15.971Z,5.70
2018-10-06T11:27:45.313Z,5.47
2018-10-06T11:30:14.706Z,6.57
2018-10-06T11:32:44.071Z,6.50
2018-10-06T11:35:13.419Z,6.00
2018-10-06T11:37:42.892Z,5.60
2018-10-06T11:40:12.152Z,5.10
2018-10-06T11:42:41.500Z,5.73
2018-10-06T11:45:10.863Z,4.97
2018-10-06T11:47:40.241Z,5.33
2018-10-06T11:50:09.645Z,5.23
2018-10-06T11:52:39.007Z,4.80
2018-10-06T11:55:08.387Z,5.53
2018-10-06T11:57:37.744Z,4.77
2018-10-06T12:00:08.003Z,4.63
2018-10-06T12:02:37.259Z,4.70
2018-10-06T12:05:06.618Z,4.53
2018-10-06T12:07:36.015Z,4.20
2018-10-06T12:10:05.691Z,4.30
2018-10-06T12:12:35.036Z,3.90
2018-10-06T12:15:04.520Z,4.20
2018-10-06T12:17:33.883Z,4.20
2018-10-06T12:20:03.292Z,4.57
2018-10-06T12:22:32.693Z,4.60
2018-10-06T12:25:02.078Z,4.70
2018-10-06T12:27:31.423Z,4.20
2018-10-06T12:30:00.830Z,4.07
2018-10-06T12:32:30.192Z,5.03
2018-10-06T12:34:59.571Z,5.20
2018-10-06T12:37:28.972Z,4.93
2018-10-06T12:39:58.360Z,4.90
2018-10-06T12:42:27.716Z,4.47
2018-10-06T12:44:57.075Z,5.20
2018-10-06T12:47:26.439Z,5.30
2018-10-06T12:49:58.693Z,4.80
2018-10-06T12:52:28.047Z,5.33
2018-10-06T12:54:57.440Z,5.97
2018-10-06T12:57:26.820Z,5.57
2018-10-06T12:59:56.194Z,5.50
2018-10-06T13:02:25.556Z,5.60
2018-10-06T13:04:54.912Z,5.60
2018-10-06T13:07:24.392Z,5.30
2018-10-06T13:09:53.748Z,5.50
2018-10-06T13:12:23.097Z,4.80
2018-10-06T13:14:52.471Z,5.40
2018-10-06T13:17:21.836Z,5.20
2018-10-06T13:19:51.207Z,5.30
2018-10-06T13:22:20.583Z,4.80
2018-10-06T13:24:49.954Z,5.40
2018-10-06T13:27:19.312Z,5.53
2018-10-06T13:29:48.659Z,5.60
2018-10-06T13:32:18.011Z,5.57
2018-10-06T13:34:47.379Z,6.60
2018-10-06T13:37:18.049Z,6.20
2018-10-06T13:39:47.448Z,5.87
2018-10-06T13:42:16.796Z,5.93
2018-10-06T13:44:46.188Z,6.07
2018-10-06T13:47:15.536Z,5.73
2018-10-06T13:49:44.883Z,6.30
2018-10-06T13:52:14.250Z,6.33
2018-10-06T13:54:43.603Z,5.97
2018-10-06T13:57:12.995Z,6.37
2018-10-06T13:59:42.355Z,4.93
2018-10-06T14:02:11.707Z,5.10
2018-10-06T14:04:41.061Z,5.13
2018-10-06T14:07:10.503Z,5.13
2018-10-06T14:09:39.853Z,5.33
2018-10-06T14:12:09.214Z,5.00
2018-10-06T14:14:38.572Z,5.10
2018-10-06T14:17:07.928Z,5.03
2018-10-06T14:19:37.279Z,5.67
2018-10-06T14:22:06.674Z,5.00
2018-10-06T14:24:36.032Z,5.03
2018-10-06T14:27:05.400Z,5.60
2018-10-06T14:29:34.745Z,6.13
2018-10-06T14:32:04.116Z,6.00
2018-10-06T14:34:33.463Z,5.70
2018-10-06T14:37:02.835Z,5.90
2018-10-06T14:39:32.220Z,5.73
2018-10-06T14:42:01.622Z,5.60
2018-10-06T14:44:31.031Z,6.57
2018-10-06T14:47:00.450Z,6.53
2018-10-06T14:49:29.811Z,6.00
2018-10-06T14:51:59.175Z,6.40
2018-10-06T14:54:28.578Z,6.33
2018-10-06T14:56:58.167Z,5.57
2018-10-06T14:59:27.560Z,5.60
2018-10-06T15:01:57.650Z,6.47
2018-10-06T15:04:27.247Z,5.50
2018-10-06T15:06:56.857Z,6.60
2018-10-06T15:09:26.375Z,6.10
2018-10-06T15:11:56.174Z,6.30
2018-10-06T15:14:25.867Z,7.07
2018-10-06T15:16:55.590Z,6.33
2018-10-06T15:19:24.985Z,5.93
2018-10-06T15:21:54.596Z,6.83
2018-10-06T15:24:24.195Z,7.03
2018-10-06T15:26:53.562Z,6.57
2018-10-06T15:29:22.907Z,6.80
2018-10-06T15:31:52.300Z,6.70
2018-10-06T15:34:21.733Z,6.30
2018-10-06T15:36:51.121Z,7.05
2018-10-06T15:39:20.468Z,6.20
2018-10-06T15:41:55.005Z,6.90
2018-10-06T15:44:24.360Z,7.10
2018-10-06T15:46:53.732Z,8.33
2018-10-06T15:49:23.080Z,8.07
2018-10-06T15:51:52.442Z,8.23
2018-10-06T15:54:21.807Z,8.50
2018-10-06T15:56:51.250Z,8.47
2018-10-06T15:59:20.707Z,8.80
2018-10-06T16:01:50.151Z,9.67
2018-10-06T16:04:19.616Z,9.43
2018-10-06T16:06:48.999Z,10.53
2018-10-06T16:09:18.372Z,9.30
2018-10-06T16:11:47.771Z,8.70
2018-10-06T16:14:17.148Z,8.57
2018-10-06T16:16:46.956Z,8.53
2018-10-06T16:19:16.347Z,8.90
2018-10-06T16:21:45.756Z,9.10
2018-10-06T16:24:15.109Z,8.27
2018-10-06T16:26:44.515Z,8.37
2018-10-06T16:29:13.855Z,8.50
2018-10-06T16:31:43.260Z,9.03
2018-10-06T16:34:12.620Z,8.10
2018-10-06T16:36:41.971Z,8.17
2018-10-06T16:39:11.348Z,8.53
2018-10-06T16:41:40.716Z,8.37
2018-10-06T16:44:10.059Z,9.30
2018-10-06T16:46:39.411Z,7.80
2018-10-06T16:49:08.832Z,7.77
2018-10-06T16:51:38.635Z,8.47
2018-10-06T16:54:08.010Z,8.43
2018-10-06T16:56:37.386Z,8.40
2018-10-06T16:59:07.063Z,9.10
2018-10-06T17:01:37.014Z,8.97
2018-10-06T17:04:06.364Z,7.33
2018-10-06T17:06:35.722Z,8.47
2018-10-06T17:09:07.191Z,7.80
2018-10-06T17:11:36.532Z,8.00
2018-10-06T17:14:06.447Z,8.30
2018-10-06T17:16:36.302Z,8.43
2018-10-06T17:19:05.759Z,8.53
2018-10-06T17:21:35.140Z,8.70
2018-10-06T17:24:04.504Z,8.67
2018-10-06T17:26:33.856Z,8.23
2018-10-06T17:29:03.203Z,8.30
2018-10-06T17:31:33.025Z,8.30
2018-10-06T17:34:02.375Z,9.03
2018-10-06T17:36:31.779Z,8.33
2018-10-06T17:39:01.236Z,8.47
2018-10-06T17:41:30.847Z,8.47
2018-10-06T17:44:01.465Z,9.13
2018-10-06T17:46:31.989Z,8.50
2018-10-06T17:49:01.423Z,9.23
2018-10-06T17:51:30.915Z,9.70
2018-10-06T17:54:00.272Z,9.17
2018-10-06T17:56:29.845Z,9.27
2018-10-06T17:58:59.308Z,9.70
2018-10-06T18:01:28.872Z,9.37
2018-10-06T18:03:58.406Z,15.63
2018-10-06T18:06:27.962Z,13.57
2018-10-06T18:08:57.504Z,9.90
2018-10-06T18:11:27.027Z,9.90
2018-10-06T18:13:56.388Z,9.90
2018-10-06T18:16:26.020Z,9.93
2018-10-06T18:18:55.360Z,9.30
2018-10-06T18:21:24.850Z,10.73
2018-10-06T18:23:54.427Z,9.37
2018-10-06T18:26:23.962Z,10.03
2018-10-06T18:28:53.549Z,10.00
2018-10-06T18:31:23.112Z,11.27
2018-10-06T18:33:52.504Z,9.57
2018-10-06T18:36:22.006Z,11.57
2018-10-06T18:38:51.332Z,10.43
2018-10-06T18:41:20.709Z,9.97
2018-10-06T18:43:50.181Z,9.83
2018-10-06T18:46:19.515Z,9.47
2018-10-06T18:48:48.920Z,9.97
2018-10-06T18:51:18.280Z,9.30
2018-10-06T18:53:47.651Z,9.83
2018-10-06T18:56:17.012Z,9.53
2018-10-06T18:58:46.366Z,9.67
2018-10-06T19:01:15.727Z,8.97
2018-10-06T19:03:45.271Z,9.47
2018-10-06T19:06:14.496Z,9.47
2018-10-06T19:08:43.938Z,8.63
2018-10-06T19:11:13.303Z,9.47
2018-10-06T19:13:42.669Z,8.53
2018-10-06T19:16:12.051Z,8.47
2018-10-06T19:18:41.517Z,9.00
2018-10-06T19:21:10.936Z,8.07
2018-10-06T19:23:40.291Z,9.23
2018-10-06T19:26:09.692Z,9.20
2018-10-06T19:28:39.039Z,8.80
2018-10-06T19:31:08.429Z,7.70
2018-10-06T19:33:37.794Z,8.30
2018-10-06T19:36:07.211Z,8.80
2018-10-06T19:38:36.591Z,8.20
2018-10-06T19:41:05.985Z,8.10
2018-10-06T19:43:35.348Z,8.03
2018-10-06T19:46:04.738Z,7.80
2018-10-06T19:48:34.088Z,8.03
2018-10-06T19:51:03.507Z,7.40
2018-10-06T19:53:32.934Z,7.60
2018-10-06T19:56:02.283Z,7.30
2018-10-06T19:58:31.651Z,8.27
2018-10-06T20:01:01.059Z,7.00
2018-10-06T20:03:30.417Z,6.63
2018-10-06T20:05:59.787Z,7.73
2018-10-06T20:08:29.145Z,8.07
2018-10-06T20:10:58.536Z,6.37
2018-10-06T20:13:27.898Z,7.53
2018-10-06T20:15:57.251Z,7.60
2018-10-06T20:18:26.596Z,6.80
2018-10-06T20:20:55.962Z,8.13
2018-10-06T20:23:25.362Z,8.07
2018-10-06T20:25:54.719Z,7.97
2018-10-06T20:28:24.085Z,8.03
2018-10-06T20:30:53.443Z,9.70
2018-10-06T20:33:22.812Z,8.83
2018-10-06T20:35:52.195Z,7.47
2018-10-06T20:38:21.549Z,8.30
2018-10-06T20:40:50.920Z,8.73
2018-10-06T20:43:20.276Z,7.70
2018-10-06T20:45:49.648Z,8.63
2018-10-06T20:48:19.014Z,8.43
2018-10-06T20:50:48.370Z,8.50
2018-10-06T20:53:17.756Z,8.40
2018-10-06T20:55:47.132Z,9.10
2018-10-06T20:58:16.516Z,8.60
2018-10-06T21:00:45.865Z,8.70
2018-10-06T21:03:15.267Z,7.97
2018-10-06T21:05:44.631Z,8.80
2018-10-06T21:08:14.180Z,7.70
2018-10-06T21:10:43.592Z,7.17
2018-10-06T21:13:12.935Z,7.70
2018-10-06T21:15:42.308Z,7.80
2018-10-06T21:18:11.727Z,8.47
2018-10-06T21:20:41.430Z,7.03
2018-10-06T21:23:10.791Z,8.20
2018-10-06T21:25:40.180Z,7.80
2018-10-06T21:28:09.533Z,7.30
2018-10-06T21:30:38.887Z,7.30
2018-10-06T21:33:08.260Z,6.90
2018-10-06T21:35:37.615Z,8.00
2018-10-06T21:38:07.091Z,7.20
2018-10-06T21:40:36.448Z,6.40
2018-10-06T21:43:06.092Z,7.97
2018-10-06T21:45:35.443Z,6.57
2018-10-06T21:48:04.815Z,6.67
2018-10-06T21:50:34.650Z,7.00
2018-10-06T21:53:04.821Z,6.37
2018-10-06T21:55:34.906Z,7.20
2018-10-06T21:58:04.982Z,7.80
2018-10-06T22:00:34.772Z,5.90
2018-10-06T22:03:04.407Z,7.23
2018-10-06T22:05:34.128Z,5.77
2018-10-06T22:08:04.345Z,6.83
2018-10-06T22:10:34.028Z,6.43
2018-10-06T22:13:03.773Z,6.10
2018-10-06T22:15:33.524Z,6.40
2018-10-06T22:18:03.362Z,6.40
2018-10-06T22:20:33.503Z,6.90
2018-10-06T22:23:03.323Z,6.30
2018-10-06T22:25:32.980Z,6.17
2018-10-06T22:28:02.665Z,7.07
2018-10-06T22:30:32.399Z,7.00
2018-10-06T22:33:02.084Z,7.20
2018-10-06T22:35:32.671Z,5.80
2018-10-06T22:38:02.448Z,6.13
2018-10-06T22:40:32.260Z,6.57
2018-10-06T22:43:02.132Z,6.87
2018-10-06T22:45:32.500Z,6.23
2018-10-06T22:48:03.109Z,6.50
2018-10-06T22:50:33.604Z,5.77
2018-10-06T22:53:03.311Z,6.00
2018-10-06T22:55:32.952Z,5.80
2018-10-06T22:58:02.668Z,7.27
2018-10-06T23:00:32.401Z,7.13
2018-10-06T23:03:02.172Z,7.50
2018-10-06T23:05:31.825Z,6.10
2018-10-06T23:08:01.501Z,6.40
2018-10-06T23:10:31.205Z,7.20
2018-10-06T23:13:00.745Z,6.23
2018-10-06T23:15:30.315Z,6.53
2018-10-06T23:17:59.952Z,6.20
2018-10-06T23:20:29.650Z,6.80
2018-10-06T23:22:59.334Z,6.70
2018-10-06T23:25:29.172Z,6.53
2018-10-06T23:27:58.951Z,6.30
2018-10-06T23:30:28.612Z,7.23
2018-10-06T23:32:58.419Z,7.10
2018-10-06T23:35:28.090Z,6.70
2018-10-06T23:37:57.756Z,7.27
2018-10-06T23:40:27.610Z,6.97
2018-10-06T23:42:57.262Z,7.30
2018-10-06T23:45:27.245Z,7.13
2018-10-06T23:47:56.977Z,6.20
2018-10-06T23:50:26.652Z,6.73
2018-10-06T23:52:56.444Z,6.97
2018-10-06T23:55:26.271Z,6.50
2018-10-06T23:57:55.932Z,6.57
